sensor_id;sensor_type;location;lat;lon;timestamp;P1;durP1;ratioP1;P2;durP2;ratioP2
68989;SDS011;56046;47.270;11.368;2023-02-13T00:00:47;11.73;;;5.77;;
68989;SDS011;56046;47.270;11.368;2023-02-13T00:03:12;13.88;;;5.93;;
68989;SDS011;56046;47.270;11.368;2023-02-13T00:05:37;14.00;;;6.17;;
68989;SDS011;56046;47.270;11.368;2023-02-13T00:08:03;15.87;;;6.23;;
68989;SDS011;56046;47.270;11.368;2023-02-13T00:10:28;13.93;;;5.77;;
68989;SDS011;56046;47.270;11.368;2023-02-13T00:12:53;13.83;;;5.40;;
68989;SDS011;56046;47.270;11.368;2023-02-13T00:15:19;11.87;;;6.27;;
68989;SDS011;56046;47.270;11.368;2023-02-13T00:17:44;13.40;;;6.40;;
68989;SDS011;56046;47.270;11.368;2023-02-13T00:20:10;14.13;;;5.50;;
68989;SDS011;56046;47.270;11.368;2023-02-13T00:22:35;14.27;;;6.40;;
68989;SDS011;56046;47.270;11.368;2023-02-13T00:25:01;12.73;;;6.27;;
68989;SDS011;56046;47.270;11.368;2023-02-13T00:27:27;13.00;;;5.40;;
68989;SDS011;56046;47.270;11.368;2023-02-13T00:29:52;12.03;;;5.47;;
68989;SDS011;56046;47.270;11.368;2023-02-13T00:32:17;13.23;;;5.97;;
68989;SDS011;56046;47.270;11.368;2023-02-13T00:34:43;11.70;;;5.10;;
68989;SDS011;56046;47.270;11.368;2023-02-13T00:37:08;13.27;;;5.77;;
68989;SDS011;56046;47.270;11.368;2023-02-13T00:39:34;12.73;;;6.03;;
68989;SDS011;56046;47.270;11.368;2023-02-13T00:41:59;12.37;;;5.33;;
68989;SDS011;56046;47.270;11.368;2023-02-13T00:44:24;11.40;;;4.93;;
68989;SDS011;56046;47.270;11.368;2023-02-13T00:46:49;11.07;;;5.13;;
68989;SDS011;56046;47.270;11.368;2023-02-13T00:49:15;13.97;;;5.57;;
68989;SDS011;56046;47.270;11.368;2023-02-13T00:51:40;13.17;;;5.60;;
68989;SDS011;56046;47.270;11.368;2023-02-13T00:54:05;11.63;;;5.00;;
68989;SDS011;56046;47.270;11.368;2023-02-13T00:56:31;11.10;;;4.87;;
68989;SDS011;56046;47.270;11.368;2023-02-13T00:58:56;14.73;;;5.10;;
68989;SDS011;56046;47.270;11.368;2023-02-13T01:01:21;12.03;;;5.07;;
68989;SDS011;56046;47.270;11.368;2023-02-13T01:03:46;14.17;;;5.20;;
68989;SDS011;56046;47.270;11.368;2023-02-13T01:06:12;14.00;;;5.23;;
68989;SDS011;56046;47.270;11.368;2023-02-13T01:08:37;10.47;;;5.17;;
68989;SDS011;56046;47.270;11.368;2023-02-13T01:11:03;11.77;;;5.07;;
68989;SDS011;56046;47.270;11.368;2023-02-13T01:13:28;9.38;;;4.63;;
68989;SDS011;56046;47.270;11.368;2023-02-13T01:15:53;13.43;;;4.73;;
68989;SDS011;56046;47.270;11.368;2023-02-13T01:18:19;10.80;;;5.07;;
68989;SDS011;56046;47.270;11.368;2023-02-13T01:20:45;12.20;;;5.57;;
68989;SDS011;56046;47.270;11.368;2023-02-13T01:23:10;12.05;;;5.05;;
68989;SDS011;56046;47.270;11.368;2023-02-13T01:25:42;14.67;;;5.17;;
68989;SDS011;56046;47.270;11.368;2023-02-13T01:28:07;13.05;;;5.32;;
68989;SDS011;56046;47.270;11.368;2023-02-13T01:30:32;10.90;;;4.87;;
68989;SDS011;56046;47.270;11.368;2023-02-13T01:32:57;10.93;;;5.33;;
68989;SDS011;56046;47.270;11.368;2023-02-13T01:35:23;10.70;;;4.63;;
68989;SDS011;56046;47.270;11.368;2023-02-13T01:37:48;11.20;;;4.97;;
68989;SDS011;56046;47.270;11.368;2023-02-13T01:40:14;9.30;;;4.38;;
68989;SDS011;56046;47.270;11.368;2023-02-13T01:42:41;12.23;;;5.13;;
68989;SDS011;56046;47.270;11.368;2023-02-13T01:47:48;9.95;;;4.68;;
68989;SDS011;56046;47.270;11.368;2023-02-13T01:50:16;11.13;;;4.72;;
68989;SDS011;56046;47.270;11.368;2023-02-13T01:52:47;13.70;;;5.57;;
68989;SDS011;56046;47.270;11.368;2023-02-13T01:55:14;10.15;;;5.03;;
68989;SDS011;56046;47.270;11.368;2023-02-13T01:57:40;12.10;;;5.60;;
68989;SDS011;56046;47.270;11.368;2023-02-13T02:00:06;11.27;;;4.87;;
68989;SDS011;56046;47.270;11.368;2023-02-13T02:02:33;15.13;;;5.20;;
68989;SDS011;56046;47.270;11.368;2023-02-13T02:05:01;11.75;;;4.28;;
68989;SDS011;56046;47.270;11.368;2023-02-13T02:07:27;10.43;;;5.17;;
68989;SDS011;56046;47.270;11.368;2023-02-13T02:09:54;12.70;;;5.03;;
68989;SDS011;56046;47.270;11.368;2023-02-13T02:12:35;9.98;;;4.95;;
68989;SDS011;56046;47.270;11.368;2023-02-13T02:15:02;11.40;;;4.80;;
68989;SDS011;56046;47.270;11.368;2023-02-13T02:17:27;11.38;;;5.40;;
68989;SDS011;56046;47.270;11.368;2023-02-13T02:35:28;9.90;;;4.28;;
68989;SDS011;56046;47.270;11.368;2023-02-13T02:43:01;11.73;;;4.77;;
68989;SDS011;56046;47.270;11.368;2023-02-13T02:56:12;9.50;;;4.80;;
68989;SDS011;56046;47.270;11.368;2023-02-13T02:58:46;11.45;;;4.97;;
68989;SDS011;56046;47.270;11.368;2023-02-13T03:01:50;9.60;;;4.35;;
68989;SDS011;56046;47.270;11.368;2023-02-13T03:04:39;12.02;;;4.80;;
68989;SDS011;56046;47.270;11.368;2023-02-13T03:07:24;12.32;;;4.80;;
68989;SDS011;56046;47.270;11.368;2023-02-13T03:10:11;12.80;;;4.63;;
68989;SDS011;56046;47.270;11.368;2023-02-13T03:12:53;10.45;;;5.25;;
68989;SDS011;56046;47.270;11.368;2023-02-13T03:15:40;11.47;;;5.37;;
68989;SDS011;56046;47.270;11.368;2023-02-13T03:18:27;15.95;;;5.47;;
68989;SDS011;56046;47.270;11.368;2023-02-13T03:21:16;14.15;;;5.90;;
68989;SDS011;56046;47.270;11.368;2023-02-13T03:24:03;12.70;;;5.85;;
68989;SDS011;56046;47.270;11.368;2023-02-13T03:26:35;13.23;;;5.55;;
68989;SDS011;56046;47.270;11.368;2023-02-13T03:29:54;13.37;;;6.40;;
68989;SDS011;56046;47.270;11.368;2023-02-13T03:38:14;7.90;;;3.78;;
68989;SDS011;56046;47.270;11.368;2023-02-13T03:40:50;9.45;;;3.80;;
68989;SDS011;56046;47.270;11.368;2023-02-13T03:43:41;7.60;;;3.27;;
68989;SDS011;56046;47.270;11.368;2023-02-13T03:46:09;10.77;;;3.83;;
68989;SDS011;56046;47.270;11.368;2023-02-13T03:48:36;9.68;;;3.83;;
68989;SDS011;56046;47.270;11.368;2023-02-13T03:51:29;9.63;;;3.38;;
68989;SDS011;56046;47.270;11.368;2023-02-13T03:53:57;10.38;;;4.03;;
68989;SDS011;56046;47.270;11.368;2023-02-13T03:56:23;9.13;;;3.50;;
68989;SDS011;56046;47.270;11.368;2023-02-13T03:59:11;7.80;;;3.90;;
68989;SDS011;56046;47.270;11.368;2023-02-13T04:01:43;9.02;;;3.92;;
68989;SDS011;56046;47.270;11.368;2023-02-13T04:04:18;8.38;;;3.38;;
68989;SDS011;56046;47.270;11.368;2023-02-13T04:06:49;11.93;;;4.38;;
68989;SDS011;56046;47.270;11.368;2023-02-13T04:09:16;11.70;;;4.80;;
68989;SDS011;56046;47.270;11.368;2023-02-13T04:11:46;10.82;;;4.95;;
68989;SDS011;56046;47.270;11.368;2023-02-13T04:14:32;12.52;;;5.20;;
68989;SDS011;56046;47.270;11.368;2023-02-13T04:17:02;10.40;;;5.23;;
68989;SDS011;56046;47.270;11.368;2023-02-13T04:19:28;12.25;;;5.10;;
68989;SDS011;56046;47.270;11.368;2023-02-13T04:21:55;16.07;;;5.77;;
68989;SDS011;56046;47.270;11.368;2023-02-13T04:24:21;11.20;;;5.53;;
68989;SDS011;56046;47.270;11.368;2023-02-13T04:26:46;10.90;;;5.13;;
68989;SDS011;56046;47.270;11.368;2023-02-13T04:29:11;13.63;;;5.40;;
68989;SDS011;56046;47.270;11.368;2023-02-13T04:31:36;12.70;;;5.30;;
68989;SDS011;56046;47.270;11.368;2023-02-13T04:34:02;12.90;;;4.87;;
68989;SDS011;56046;47.270;11.368;2023-02-13T04:36:27;9.40;;;4.77;;
68989;SDS011;56046;47.270;11.368;2023-02-13T04:38:52;12.87;;;4.93;;
68989;SDS011;56046;47.270;11.368;2023-02-13T04:41:18;12.63;;;5.07;;
68989;SDS011;56046;47.270;11.368;2023-02-13T04:43:43;10.73;;;4.65;;
68989;SDS011;56046;47.270;11.368;2023-02-13T04:46:09;13.80;;;4.93;;
68989;SDS011;56046;47.270;11.368;2023-02-13T04:48:34;11.47;;;5.43;;
68989;SDS011;56046;47.270;11.368;2023-02-13T04:50:59;13.43;;;4.97;;
68989;SDS011;56046;47.270;11.368;2023-02-13T04:53:25;9.17;;;4.00;;
68989;SDS011;56046;47.270;11.368;2023-02-13T04:55:50;10.57;;;4.40;;
68989;SDS011;56046;47.270;11.368;2023-02-13T04:58:16;11.15;;;4.47;;
68989;SDS011;56046;47.270;11.368;2023-02-13T05:00:41;9.97;;;4.43;;
68989;SDS011;56046;47.270;11.368;2023-02-13T05:03:07;14.25;;;5.13;;
68989;SDS011;56046;47.270;11.368;2023-02-13T05:05:33;10.05;;;4.75;;
68989;SDS011;56046;47.270;11.368;2023-02-13T05:07:59;12.68;;;4.00;;
68989;SDS011;56046;47.270;11.368;2023-02-13T05:10:24;9.33;;;4.30;;
68989;SDS011;56046;47.270;11.368;2023-02-13T05:12:50;9.20;;;4.00;;
68989;SDS011;56046;47.270;11.368;2023-02-13T05:15:15;12.37;;;6.10;;
68989;SDS011;56046;47.270;11.368;2023-02-13T05:17:44;19.23;;;9.50;;
68989;SDS011;56046;47.270;11.368;2023-02-13T05:20:09;22.90;;;9.55;;
68989;SDS011;56046;47.270;11.368;2023-02-13T05:22:35;18.10;;;7.93;;
68989;SDS011;56046;47.270;11.368;2023-02-13T05:25:19;11.77;;;5.43;;
68989;SDS011;56046;47.270;11.368;2023-02-13T05:27:44;13.33;;;5.77;;
68989;SDS011;56046;47.270;11.368;2023-02-13T05:30:09;8.37;;;3.87;;
68989;SDS011;56046;47.270;11.368;2023-02-13T05:32:35;9.25;;;3.75;;
68989;SDS011;56046;47.270;11.368;2023-02-13T05:35:00;7.97;;;3.53;;
68989;SDS011;56046;47.270;11.368;2023-02-13T05:37:26;9.07;;;4.37;;
68989;SDS011;56046;47.270;11.368;2023-02-13T05:39:51;8.77;;;4.40;;
68989;SDS011;56046;47.270;11.368;2023-02-13T05:42:16;8.38;;;4.10;;
68989;SDS011;56046;47.270;11.368;2023-02-13T05:44:41;8.95;;;4.22;;
68989;SDS011;56046;47.270;11.368;2023-02-13T05:47:07;8.27;;;3.65;;
68989;SDS011;56046;47.270;11.368;2023-02-13T05:49:32;8.30;;;3.43;;
68989;SDS011;56046;47.270;11.368;2023-02-13T05:51:57;8.73;;;3.70;;
68989;SDS011;56046;47.270;11.368;2023-02-13T05:54:23;8.63;;;3.90;;
68989;SDS011;56046;47.270;11.368;2023-02-13T05:56:48;10.87;;;3.77;;
68989;SDS011;56046;47.270;11.368;2023-02-13T05:59:13;10.93;;;4.23;;
68989;SDS011;56046;47.270;11.368;2023-02-13T06:01:38;7.77;;;3.50;;
68989;SDS011;56046;47.270;11.368;2023-02-13T06:04:04;8.83;;;3.80;;
68989;SDS011;56046;47.270;11.368;2023-02-13T06:06:29;9.23;;;3.73;;
68989;SDS011;56046;47.270;11.368;2023-02-13T06:08:54;8.53;;;3.80;;
68989;SDS011;56046;47.270;11.368;2023-02-13T06:11:19;9.63;;;4.00;;
68989;SDS011;56046;47.270;11.368;2023-02-13T06:13:45;11.73;;;4.73;;
68989;SDS011;56046;47.270;11.368;2023-02-13T06:16:10;9.17;;;3.77;;
68989;SDS011;56046;47.270;11.368;2023-02-13T06:18:36;10.32;;;4.45;;
68989;SDS011;56046;47.270;11.368;2023-02-13T06:21:03;12.00;;;4.72;;
68989;SDS011;56046;47.270;11.368;2023-02-13T06:23:29;12.00;;;4.97;;
68989;SDS011;56046;47.270;11.368;2023-02-13T06:25:55;13.85;;;5.30;;
68989;SDS011;56046;47.270;11.368;2023-02-13T06:28:20;12.03;;;6.07;;
68989;SDS011;56046;47.270;11.368;2023-02-13T06:30:46;11.10;;;4.40;;
68989;SDS011;56046;47.270;11.368;2023-02-13T06:33:11;11.25;;;4.07;;
68989;SDS011;56046;47.270;11.368;2023-02-13T06:35:37;7.40;;;3.87;;
68989;SDS011;56046;47.270;11.368;2023-02-13T06:38:02;11.00;;;4.40;;
68989;SDS011;56046;47.270;11.368;2023-02-13T06:40:27;9.27;;;4.67;;
68989;SDS011;56046;47.270;11.368;2023-02-13T06:42:52;10.47;;;4.00;;
68989;SDS011;56046;47.270;11.368;2023-02-13T06:45:18;8.47;;;3.77;;
68989;SDS011;56046;47.270;11.368;2023-02-13T06:47:44;10.00;;;3.93;;
68989;SDS011;56046;47.270;11.368;2023-02-13T06:50:10;8.57;;;3.30;;
68989;SDS011;56046;47.270;11.368;2023-02-13T06:52:36;9.20;;;3.05;;
68989;SDS011;56046;47.270;11.368;2023-02-13T06:55:01;8.63;;;3.10;;
68989;SDS011;56046;47.270;11.368;2023-02-13T06:57:26;8.33;;;3.80;;
68989;SDS011;56046;47.270;11.368;2023-02-13T06:59:53;7.28;;;3.42;;
68989;SDS011;56046;47.270;11.368;2023-02-13T07:02:19;8.27;;;3.70;;
68989;SDS011;56046;47.270;11.368;2023-02-13T07:04:44;8.43;;;3.73;;
68989;SDS011;56046;47.270;11.368;2023-02-13T07:07:09;7.50;;;3.50;;
68989;SDS011;56046;47.270;11.368;2023-02-13T07:09:35;10.63;;;3.50;;
68989;SDS011;56046;47.270;11.368;2023-02-13T07:12:03;9.47;;;4.30;;
68989;SDS011;56046;47.270;11.368;2023-02-13T07:14:29;9.65;;;3.95;;
68989;SDS011;56046;47.270;11.368;2023-02-13T07:16:54;9.77;;;3.90;;
68989;SDS011;56046;47.270;11.368;2023-02-13T07:19:20;10.73;;;3.60;;
68989;SDS011;56046;47.270;11.368;2023-02-13T07:21:45;8.80;;;3.40;;
68989;SDS011;56046;47.270;11.368;2023-02-13T07:24:10;9.63;;;3.67;;
68989;SDS011;56046;47.270;11.368;2023-02-13T07:26:35;8.73;;;3.97;;
68989;SDS011;56046;47.270;11.368;2023-02-13T07:29:01;9.57;;;4.37;;
68989;SDS011;56046;47.270;11.368;2023-02-13T07:31:31;7.03;;;3.70;;
68989;SDS011;56046;47.270;11.368;2023-02-13T07:33:56;9.87;;;4.00;;
68989;SDS011;56046;47.270;11.368;2023-02-13T07:36:21;9.07;;;4.03;;
68989;SDS011;56046;47.270;11.368;2023-02-13T07:38:47;10.45;;;4.10;;
68989;SDS011;56046;47.270;11.368;2023-02-13T07:41:12;11.57;;;5.22;;
68989;SDS011;56046;47.270;11.368;2023-02-13T07:43:37;10.90;;;5.10;;
68989;SDS011;56046;47.270;11.368;2023-02-13T07:46:02;10.10;;;4.93;;
68989;SDS011;56046;47.270;11.368;2023-02-13T07:48:28;10.17;;;4.80;;
68989;SDS011;56046;47.270;11.368;2023-02-13T07:50:54;10.07;;;4.73;;
68989;SDS011;56046;47.270;11.368;2023-02-13T07:53:23;12.68;;;4.95;;
68989;SDS011;56046;47.270;11.368;2023-02-13T07:55:48;11.30;;;5.17;;
68989;SDS011;56046;47.270;11.368;2023-02-13T07:58:13;8.37;;;4.20;;
68989;SDS011;56046;47.270;11.368;2023-02-13T08:00:39;9.07;;;4.10;;
68989;SDS011;56046;47.270;11.368;2023-02-13T08:03:04;7.43;;;3.17;;
68989;SDS011;56046;47.270;11.368;2023-02-13T08:05:30;8.23;;;3.87;;
68989;SDS011;56046;47.270;11.368;2023-02-13T08:07:56;7.80;;;3.80;;
68989;SDS011;56046;47.270;11.368;2023-02-13T08:10:21;9.77;;;4.40;;
68989;SDS011;56046;47.270;11.368;2023-02-13T08:13:05;11.02;;;4.05;;
68989;SDS011;56046;47.270;11.368;2023-02-13T08:15:31;10.20;;;5.00;;
68989;SDS011;56046;47.270;11.368;2023-02-13T08:17:56;15.30;;;6.60;;
68989;SDS011;56046;47.270;11.368;2023-02-13T08:20:21;14.17;;;6.37;;
68989;SDS011;56046;47.270;11.368;2023-02-13T08:22:48;13.05;;;5.25;;
68989;SDS011;56046;47.270;11.368;2023-02-13T08:25:13;18.73;;;5.90;;
68989;SDS011;56046;47.270;11.368;2023-02-13T08:27:38;14.23;;;5.53;;
68989;SDS011;56046;47.270;11.368;2023-02-13T08:30:04;17.63;;;5.80;;
68989;SDS011;56046;47.270;11.368;2023-02-13T08:32:29;15.27;;;5.20;;
68989;SDS011;56046;47.270;11.368;2023-02-13T08:34:55;11.90;;;4.80;;
68989;SDS011;56046;47.270;11.368;2023-02-13T08:37:20;11.03;;;4.97;;
68989;SDS011;56046;47.270;11.368;2023-02-13T08:39:45;13.83;;;5.87;;
68989;SDS011;56046;47.270;11.368;2023-02-13T08:42:11;10.23;;;5.60;;
68989;SDS011;56046;47.270;11.368;2023-02-13T08:44:36;10.83;;;5.30;;
68989;SDS011;56046;47.270;11.368;2023-02-13T08:47:05;21.33;;;9.07;;
68989;SDS011;56046;47.270;11.368;2023-02-13T08:49:30;13.47;;;7.03;;
68989;SDS011;56046;47.270;11.368;2023-02-13T08:51:56;12.98;;;4.30;;
68989;SDS011;56046;47.270;11.368;2023-02-13T08:54:21;11.38;;;4.93;;
68989;SDS011;56046;47.270;11.368;2023-02-13T08:56:46;11.43;;;5.00;;
68989;SDS011;56046;47.270;11.368;2023-02-13T08:59:12;10.00;;;4.13;;
68989;SDS011;56046;47.270;11.368;2023-02-13T09:01:37;7.30;;;3.63;;
68989;SDS011;56046;47.270;11.368;2023-02-13T09:04:02;10.37;;;3.90;;
68989;SDS011;56046;47.270;11.368;2023-02-13T09:06:27;7.47;;;3.80;;
68989;SDS011;56046;47.270;11.368;2023-02-13T09:08:53;9.10;;;3.90;;
68989;SDS011;56046;47.270;11.368;2023-02-13T09:11:18;8.23;;;4.07;;
68989;SDS011;56046;47.270;11.368;2023-02-13T09:13:47;9.40;;;3.63;;
68989;SDS011;56046;47.270;11.368;2023-02-13T09:16:12;11.03;;;3.73;;
68989;SDS011;56046;47.270;11.368;2023-02-13T09:18:37;9.73;;;3.90;;
68989;SDS011;56046;47.270;11.368;2023-02-13T09:21:04;9.10;;;3.60;;
68989;SDS011;56046;47.270;11.368;2023-02-13T09:23:31;10.15;;;3.30;;
68989;SDS011;56046;47.270;11.368;2023-02-13T09:26:00;11.18;;;4.20;;
68989;SDS011;56046;47.270;11.368;2023-02-13T09:28:26;9.63;;;4.23;;
68989;SDS011;56046;47.270;11.368;2023-02-13T09:30:51;8.68;;;3.90;;
68989;SDS011;56046;47.270;11.368;2023-02-13T09:33:16;9.20;;;4.00;;
68989;SDS011;56046;47.270;11.368;2023-02-13T09:35:42;9.27;;;4.00;;
68989;SDS011;56046;47.270;11.368;2023-02-13T09:38:10;8.97;;;3.83;;
68989;SDS011;56046;47.270;11.368;2023-02-13T09:40:38;9.48;;;4.03;;
68989;SDS011;56046;47.270;11.368;2023-02-13T09:43:12;10.02;;;2.90;;
68989;SDS011;56046;47.270;11.368;2023-02-13T09:45:38;11.15;;;3.58;;
68989;SDS011;56046;47.270;11.368;2023-02-13T09:48:04;6.93;;;3.23;;
68989;SDS011;56046;47.270;11.368;2023-02-13T09:50:30;8.60;;;3.55;;
68989;SDS011;56046;47.270;11.368;2023-02-13T09:52:57;9.18;;;3.80;;
68989;SDS011;56046;47.270;11.368;2023-02-13T09:57:55;10.30;;;3.87;;
68989;SDS011;56046;47.270;11.368;2023-02-13T10:00:27;8.93;;;3.28;;
68989;SDS011;56046;47.270;11.368;2023-02-13T10:07:55;6.95;;;2.75;;
68989;SDS011;56046;47.270;11.368;2023-02-13T10:17:58;4.30;;;2.13;;
68989;SDS011;56046;47.270;11.368;2023-02-13T10:25:48;4.67;;;2.40;;
68989;SDS011;56046;47.270;11.368;2023-02-13T10:28:16;4.53;;;2.42;;
68989;SDS011;56046;47.270;11.368;2023-02-13T10:30:55;6.30;;;2.30;;
68989;SDS011;56046;47.270;11.368;2023-02-13T10:33:24;7.13;;;2.88;;
68989;SDS011;56046;47.270;11.368;2023-02-13T10:38:19;9.37;;;2.53;;
68989;SDS011;56046;47.270;11.368;2023-02-13T10:40:53;6.72;;;3.17;;
68989;SDS011;56046;47.270;11.368;2023-02-13T10:43:22;5.88;;;2.83;;
68989;SDS011;56046;47.270;11.368;2023-02-13T10:55:54;8.57;;;3.27;;
68989;SDS011;56046;47.270;11.368;2023-02-13T11:03:20;5.43;;;1.90;;
68989;SDS011;56046;47.270;11.368;2023-02-13T11:05:46;4.85;;;1.83;;
68989;SDS011;56046;47.270;11.368;2023-02-13T11:08:16;4.87;;;2.30;;
68989;SDS011;56046;47.270;11.368;2023-02-13T11:10:42;4.90;;;2.10;;
68989;SDS011;56046;47.270;11.368;2023-02-13T11:15:42;5.20;;;2.42;;
68989;SDS011;56046;47.270;11.368;2023-02-13T11:18:25;4.67;;;2.10;;
68989;SDS011;56046;47.270;11.368;2023-02-13T11:21:30;6.07;;;2.63;;
68989;SDS011;56046;47.270;11.368;2023-02-13T11:23:44;7.70;;;2.97;;
68989;SDS011;56046;47.270;11.368;2023-02-13T11:26:14;6.60;;;2.65;;
68989;SDS011;56046;47.270;11.368;2023-02-13T11:28:50;5.83;;;2.53;;
68989;SDS011;56046;47.270;11.368;2023-02-13T11:31:20;10.50;;;3.42;;
68989;SDS011;56046;47.270;11.368;2023-02-13T11:33:46;25.95;;;10.57;;
68989;SDS011;56046;47.270;11.368;2023-02-13T11:36:15;9.60;;;4.20;;
68989;SDS011;56046;47.270;11.368;2023-02-13T11:38:40;7.80;;;2.78;;
68989;SDS011;56046;47.270;11.368;2023-02-13T11:41:10;6.23;;;2.30;;
68989;SDS011;56046;47.270;11.368;2023-02-13T11:43:42;5.78;;;2.15;;
68989;SDS011;56046;47.270;11.368;2023-02-13T11:46:14;6.82;;;2.50;;
68989;SDS011;56046;47.270;11.368;2023-02-13T11:48:41;4.30;;;2.07;;
68989;SDS011;56046;47.270;11.368;2023-02-13T11:51:07;6.05;;;2.45;;
68989;SDS011;56046;47.270;11.368;2023-02-13T11:53:37;5.57;;;2.73;;
68989;SDS011;56046;47.270;11.368;2023-02-13T11:58:31;7.07;;;3.20;;
68989;SDS011;56046;47.270;11.368;2023-02-13T12:03:40;7.13;;;2.33;;
68989;SDS011;56046;47.270;11.368;2023-02-13T12:08:34;5.95;;;2.28;;
68989;SDS011;56046;47.270;11.368;2023-02-13T12:11:00;4.03;;;2.20;;
68989;SDS011;56046;47.270;11.368;2023-02-13T12:13:29;5.28;;;1.83;;
68989;SDS011;56046;47.270;11.368;2023-02-13T12:15:59;7.20;;;1.90;;
68989;SDS011;56046;47.270;11.368;2023-02-13T12:18:28;6.10;;;2.65;;
68989;SDS011;56046;47.270;11.368;2023-02-13T12:34:22;5.30;;;1.80;;
68989;SDS011;56046;47.270;11.368;2023-02-13T12:39:33;7.27;;;2.00;;
68989;SDS011;56046;47.270;11.368;2023-02-13T12:47:10;5.00;;;1.98;;
68989;SDS011;56046;47.270;11.368;2023-02-13T12:52:38;4.40;;;2.20;;
68989;SDS011;56046;47.270;11.368;2023-02-13T13:18:27;5.85;;;2.47;;
68989;SDS011;56046;47.270;11.368;2023-02-13T13:28:22;4.75;;;2.00;;
68989;SDS011;56046;47.270;11.368;2023-02-13T13:30:48;7.13;;;2.37;;
68989;SDS011;56046;47.270;11.368;2023-02-13T13:33:15;5.07;;;2.10;;
68989;SDS011;56046;47.270;11.368;2023-02-13T13:35:41;4.85;;;2.40;;
68989;SDS011;56046;47.270;11.368;2023-02-13T13:38:45;3.70;;;1.60;;
68989;SDS011;56046;47.270;11.368;2023-02-13T13:41:03;7.93;;;1.98;;
68989;SDS011;56046;47.270;11.368;2023-02-13T13:46:09;3.80;;;2.17;;
68989;SDS011;56046;47.270;11.368;2023-02-13T13:48:56;5.78;;;2.10;;
68989;SDS011;56046;47.270;11.368;2023-02-13T13:51:23;6.23;;;2.30;;
68989;SDS011;56046;47.270;11.368;2023-02-13T13:59:24;8.27;;;2.10;;
68989;SDS011;56046;47.270;11.368;2023-02-13T14:07:25;6.05;;;2.20;;
68989;SDS011;56046;47.270;11.368;2023-02-13T14:09:50;5.77;;;1.90;;
68989;SDS011;56046;47.270;11.368;2023-02-13T14:14:53;4.28;;;1.88;;
68989;SDS011;56046;47.270;11.368;2023-02-13T14:20:11;5.57;;;1.97;;
68989;SDS011;56046;47.270;11.368;2023-02-13T14:22:41;6.78;;;2.22;;
68989;SDS011;56046;47.270;11.368;2023-02-13T14:25:19;6.55;;;2.15;;
68989;SDS011;56046;47.270;11.368;2023-02-13T14:27:53;4.70;;;1.92;;
68989;SDS011;56046;47.270;11.368;2023-02-13T14:30:29;5.57;;;1.73;;
68989;SDS011;56046;47.270;11.368;2023-02-13T14:32:55;4.63;;;2.00;;
68989;SDS011;56046;47.270;11.368;2023-02-13T14:35:29;4.05;;;1.52;;
68989;SDS011;56046;47.270;11.368;2023-02-13T14:37:56;3.22;;;1.77;;
68989;SDS011;56046;47.270;11.368;2023-02-13T14:45:21;4.80;;;1.43;;
68989;SDS011;56046;47.270;11.368;2023-02-13T14:47:48;4.68;;;1.30;;
68989;SDS011;56046;47.270;11.368;2023-02-13T14:50:27;4.65;;;1.75;;
68989;SDS011;56046;47.270;11.368;2023-02-13T14:52:53;3.15;;;1.58;;
68989;SDS011;56046;47.270;11.368;2023-02-13T14:57:55;4.80;;;1.90;;
68989;SDS011;56046;47.270;11.368;2023-02-13T15:03:46;3.08;;;1.40;;
68989;SDS011;56046;47.270;11.368;2023-02-13T15:05:52;6.07;;;1.55;;
68989;SDS011;56046;47.270;11.368;2023-02-13T15:08:29;3.83;;;1.52;;
68989;SDS011;56046;47.270;11.368;2023-02-13T15:10:56;4.45;;;1.80;;
68989;SDS011;56046;47.270;11.368;2023-02-13T15:13:23;4.20;;;1.80;;
68989;SDS011;56046;47.270;11.368;2023-02-13T15:15:55;6.63;;;1.90;;
68989;SDS011;56046;47.270;11.368;2023-02-13T15:18:26;5.20;;;1.93;;
68989;SDS011;56046;47.270;11.368;2023-02-13T15:20:53;4.72;;;2.10;;
68989;SDS011;56046;47.270;11.368;2023-02-13T15:23:20;5.97;;;2.53;;
68989;SDS011;56046;47.270;11.368;2023-02-13T15:25:46;5.60;;;3.00;;
68989;SDS011;56046;47.270;11.368;2023-02-13T15:28:18;7.97;;;3.13;;
68989;SDS011;56046;47.270;11.368;2023-02-13T15:30:52;7.70;;;2.83;;
68989;SDS011;56046;47.270;11.368;2023-02-13T15:33:19;6.80;;;2.92;;
68989;SDS011;56046;47.270;11.368;2023-02-13T15:35:44;10.27;;;3.67;;
68989;SDS011;56046;47.270;11.368;2023-02-13T15:38:24;7.47;;;3.10;;
68989;SDS011;56046;47.270;11.368;2023-02-13T15:40:50;6.10;;;3.00;;
68989;SDS011;56046;47.270;11.368;2023-02-13T15:43:23;7.32;;;3.47;;
68989;SDS011;56046;47.270;11.368;2023-02-13T15:45:49;6.55;;;3.22;;
68989;SDS011;56046;47.270;11.368;2023-02-13T15:48:15;6.17;;;3.10;;
68989;SDS011;56046;47.270;11.368;2023-02-13T15:50:41;7.35;;;4.00;;
68989;SDS011;56046;47.270;11.368;2023-02-13T15:53:09;10.00;;;3.77;;
68989;SDS011;56046;47.270;11.368;2023-02-13T15:55:35;8.45;;;3.80;;
68989;SDS011;56046;47.270;11.368;2023-02-13T15:58:02;8.70;;;3.03;;
68989;SDS011;56046;47.270;11.368;2023-02-13T16:00:29;7.23;;;3.43;;
68989;SDS011;56046;47.270;11.368;2023-02-13T16:02:56;7.70;;;3.30;;
68989;SDS011;56046;47.270;11.368;2023-02-13T16:05:23;9.93;;;3.92;;
68989;SDS011;56046;47.270;11.368;2023-02-13T16:07:58;9.27;;;3.47;;
68989;SDS011;56046;47.270;11.368;2023-02-13T16:10:31;6.93;;;2.37;;
68989;SDS011;56046;47.270;11.368;2023-02-13T16:12:57;5.30;;;2.60;;
68989;SDS011;56046;47.270;11.368;2023-02-13T16:15:24;6.55;;;2.60;;
68989;SDS011;56046;47.270;11.368;2023-02-13T16:17:51;6.55;;;2.40;;
68989;SDS011;56046;47.270;11.368;2023-02-13T16:20:21;6.27;;;2.83;;
68989;SDS011;56046;47.270;11.368;2023-02-13T16:22:54;5.68;;;2.30;;
68989;SDS011;56046;47.270;11.368;2023-02-13T16:25:27;6.70;;;2.72;;
68989;SDS011;56046;47.270;11.368;2023-02-13T16:27:57;6.70;;;2.63;;
68989;SDS011;56046;47.270;11.368;2023-02-13T16:32:51;5.18;;;2.35;;
68989;SDS011;56046;47.270;11.368;2023-02-13T16:35:33;7.25;;;2.80;;
68989;SDS011;56046;47.270;11.368;2023-02-13T16:38:00;6.75;;;2.80;;
68989;SDS011;56046;47.270;11.368;2023-02-13T16:43:31;5.23;;;2.40;;
68989;SDS011;56046;47.270;11.368;2023-02-13T16:45:40;9.80;;;3.33;;
68989;SDS011;56046;47.270;11.368;2023-02-13T16:48:09;5.97;;;2.47;;
68989;SDS011;56046;47.270;11.368;2023-02-13T16:50:35;5.43;;;2.55;;
68989;SDS011;56046;47.270;11.368;2023-02-13T16:53:01;4.47;;;1.83;;
68989;SDS011;56046;47.270;11.368;2023-02-13T16:55:28;8.23;;;2.13;;
68989;SDS011;56046;47.270;11.368;2023-02-13T16:58:04;6.45;;;2.78;;
68989;SDS011;56046;47.270;11.368;2023-02-13T17:00:30;7.93;;;3.03;;
68989;SDS011;56046;47.270;11.368;2023-02-13T17:02:56;6.10;;;2.40;;
68989;SDS011;56046;47.270;11.368;2023-02-13T17:05:22;6.57;;;2.50;;
68989;SDS011;56046;47.270;11.368;2023-02-13T17:07:49;6.57;;;2.17;;
68989;SDS011;56046;47.270;11.368;2023-02-13T17:10:31;7.35;;;2.60;;
68989;SDS011;56046;47.270;11.368;2023-02-13T17:13:01;7.93;;;2.83;;
68989;SDS011;56046;47.270;11.368;2023-02-13T17:15:28;7.32;;;2.30;;
68989;SDS011;56046;47.270;11.368;2023-02-13T17:17:53;7.60;;;2.20;;
68989;SDS011;56046;47.270;11.368;2023-02-13T17:20:23;5.93;;;2.17;;
68989;SDS011;56046;47.270;11.368;2023-02-13T17:22:50;4.63;;;2.17;;
68989;SDS011;56046;47.270;11.368;2023-02-13T17:25:18;5.60;;;1.73;;
68989;SDS011;56046;47.270;11.368;2023-02-13T17:27:44;7.88;;;2.70;;
68989;SDS011;56046;47.270;11.368;2023-02-13T17:30:14;5.20;;;2.10;;
68989;SDS011;56046;47.270;11.368;2023-02-13T17:32:40;4.35;;;2.10;;